Home   Weather   Israel   Tel Aviv   Past weeks
Flag for Israel

Past Weather in Tel Aviv, Israel — Yesterday and Last 2 Weeks

Currently: 79 °F. Clear. (Weather station: Ben Gurion International Airport, Israel). See more current weather

Past Weather in Tel Aviv — Graph

°F

Tel Aviv Temperature Yesterday

Maximum temperature yesterday: 97 °F (at 1:20 pm)
Minimum temperature yesterday: 75 °F (at 4:50 am)
Average temperature yesterday: 86 °F

High & Low Weather Summary for the Past Weeks

 TemperatureHumidityPressure
High97 °F (Aug 2, 1:20 pm)94% (Jul 29, 6:20 am)29.83 "Hg (Jul 29, 6:20 am)
Low75 °F (Aug 1, 5:20 am)26% (Aug 2, 4:20 pm)29.59 "Hg (Jul 30, 5:20 pm)
Average84 °F65%29.71 "Hg
* Reported Jul 19 12:20 am — Aug 3 12:50 am, Tel Aviv. Weather by CustomWeather, © 2021

Note: Actual official high and low records may vary slightly from our data, if they occured in-between our weather recording intervals... More about our weather records

Tel Aviv Weather History for the Previous 24 Hours

Scroll right to see more
 ConditionsComfort  
Time TempWeatherWind HumidityBarometerVisibility
12:50 am
Tue, Aug 3
81 °FClear.1 mph51%29.68 "Hg10 mi
12:20 am81 °FClear.2 mph51%29.68 "Hg10 mi
11:50 pm
Mon, Aug 2
81 °FClear.3 mph58%29.68 "Hg10 mi
11:20 pm82 °FClear.2 mph58%29.68 "Hg10 mi
10:50 pm84 °FClear.2 mph55%29.68 "Hg10 mi
10:20 pm84 °FClear.1 mph55%29.68 "Hg10 mi
9:50 pm84 °FClear.3 mph55%29.68 "Hg10 mi
9:20 pm86 °FClear.2 mph52%29.68 "Hg10 mi
8:50 pm88 °FClear.5 mph46%29.68 "Hg10 mi
8:20 pm88 °FClear.3 mph46%29.68 "Hg10 mi
7:50 pm90 °FClear.6 mph38%29.65 "Hg10 mi
7:20 pm91 °FSunny.7 mph38%29.65 "Hg10 mi
6:50 pm91 °FSunny.8 mph36%29.65 "Hg10 mi
6:20 pm91 °FSunny.8 mph41%29.65 "Hg10 mi
5:50 pm91 °FSunny.9 mph41%29.65 "Hg10 mi
5:20 pm93 °FPassing clouds.9 mph36%29.65 "HgN/A
4:50 pm93 °FSunny.10 mph36%29.65 "Hg10 mi
4:20 pm95 °FSunny.10 mph26%29.65 "Hg10 mi
3:50 pm95 °FSunny.12 mph32%29.65 "Hg10 mi
3:20 pm95 °FSunny.12 mph32%29.65 "Hg10 mi
2:50 pm95 °FPassing clouds.10 mph30%29.65 "HgN/A
2:20 pm93 °FPassing clouds.10 mph36%29.65 "HgN/A
1:50 pm95 °FPassing clouds.10 mph32%29.65 "HgN/A
1:20 pm97 °FSunny.12 mph32%29.65 "Hg10 mi
12:50 pm95 °FPassing clouds.8 mph36%29.65 "HgN/A
12:20 pm93 °FPassing clouds.8 mph44%29.65 "HgN/A
11:50 am93 °FPassing clouds.6 mph49%29.65 "HgN/A
11:20 am93 °FPassing clouds.5 mph39%29.68 "HgN/A
10:20 am90 °FSunny.6 mph52%29.68 "Hg10 mi
9:50 am86 °FSunny.3 mph55%29.68 "Hg10 mi
9:20 am86 °FPassing clouds.5 mph62%29.68 "HgN/A
8:50 am84 °FPassing clouds.5 mph66%29.68 "HgN/A
8:20 am82 °FSunny.6 mph55%29.68 "Hg10 mi
7:50 am79 °FSunny.5 mph51%29.68 "Hg10 mi
7:20 am77 °FPassing clouds.5 mph44%29.68 "HgN/A
6:50 am75 °FPassing clouds.3 mph47%29.65 "HgN/A
6:20 am75 °FPassing clouds.6 mph47%29.65 "HgN/A
5:50 am75 °FPassing clouds.5 mph47%29.65 "HgN/A
5:20 am77 °FClear.6 mph44%29.65 "Hg10 mi
4:50 am75 °FClear.5 mph54%29.65 "Hg10 mi
4:20 am77 °FClear.5 mph54%29.65 "Hg10 mi
3:50 am77 °FClear.3 mph54%29.65 "Hg10 mi
2:20 am79 °FClear.2 mph61%29.65 "Hg10 mi
Weather by CustomWeather, © 2021

See weather overview